createdAt,value
2018-08-09T05:02:19.083Z,95121.88
2018-08-09T05:07:22.418Z,95120.73
2018-08-09T05:12:25.751Z,95115.59
2018-08-09T05:17:29.087Z,95118.03
2018-08-09T05:22:32.417Z,95120.80
2018-08-09T05:27:35.748Z,95115.64
2018-08-09T05:32:39.079Z,95118.98
2018-08-09T05:37:42.405Z,95122.70
2018-08-09T05:42:45.882Z,95129.69
2018-08-09T05:47:49.204Z,95130.91
2018-08-09T05:52:52.549Z,95125.92
2018-08-09T05:57:55.879Z,95137.70
2018-08-09T06:02:59.967Z,95141.59
2018-08-09T06:08:03.293Z,95133.58
2018-08-09T06:13:06.618Z,95140.52
2018-08-09T06:18:09.935Z,95139.47
2018-08-09T06:23:14.034Z,95141.87
2018-08-09T06:28:17.366Z,95144.73
2018-08-09T06:33:20.709Z,95143.75
2018-08-09T06:38:24.815Z,95144.75
2018-08-09T06:43:28.143Z,95138.02
2018-08-09T06:48:32.411Z,95137.39
2018-08-09T06:53:35.777Z,95147.03
2018-08-09T06:58:39.866Z,95152.04
2018-08-09T07:03:43.195Z,95150.89
2018-08-09T07:08:46.542Z,95142.86
2018-08-09T07:13:50.810Z,95131.63
2018-08-09T07:18:54.167Z,95129.29
2018-08-09T07:23:57.617Z,95129.16
2018-08-09T07:29:00.946Z,95130.26
2018-08-09T07:34:04.275Z,95133.41
2018-08-09T07:39:07.606Z,95136.66
2018-08-09T07:44:10.934Z,95133.94
2018-08-09T07:49:14.274Z,95130.63
2018-08-09T07:54:18.404Z,95130.32
2018-08-09T07:59:21.718Z,95123.59
2018-08-09T08:04:25.817Z,95122.80
2018-08-09T08:09:29.150Z,95109.91
2018-08-09T08:14:33.236Z,95108.50
2018-08-09T08:19:36.564Z,95104.19
2018-08-09T08:24:42.938Z,95100.46
2018-08-09T08:29:46.270Z,95093.14
2018-08-09T08:34:49.607Z,95100.03
2018-08-09T08:39:53.702Z,95088.84
2018-08-09T08:44:57.026Z,95080.30
2018-08-09T08:50:00.355Z,95073.53
2018-08-09T08:55:04.497Z,95069.46
2018-08-09T09:00:07.797Z,95072.31
2018-08-09T09:05:11.969Z,95050.89
2018-08-09T09:10:15.211Z,95053.09
2018-08-09T09:15:18.540Z,95042.49
2018-08-09T09:20:22.630Z,95030.69
2018-08-09T09:25:25.959Z,95030.91
2018-08-09T09:30:29.304Z,95037.45
2018-08-09T09:35:33.394Z,95027.69
2018-08-09T09:40:36.722Z,95037.81
2018-08-09T09:45:40.061Z,95035.70
2018-08-09T09:50:43.389Z,95039.17
2018-08-09T09:55:47.483Z,95029.39
2018-08-09T10:00:50.811Z,95029.55
2018-08-09T10:05:54.898Z,95025.02
2018-08-09T10:10:58.224Z,95015.38
2018-08-09T10:16:01.580Z,95013.41
2018-08-09T10:21:05.674Z,95006.06
2018-08-09T10:26:09.015Z,94999.60
2018-08-09T10:31:13.098Z,94998.28
2018-08-09T10:36:16.422Z,94988.77
2018-08-09T10:41:19.743Z,94995.08
2018-08-09T10:46:23.091Z,94976.00
2018-08-09T10:51:26.445Z,94972.89
2018-08-09T10:56:29.771Z,94971.77
2018-08-09T11:01:33.098Z,94964.31
2018-08-09T11:06:36.431Z,94945.65
2018-08-09T11:11:39.757Z,94952.50
2018-08-09T11:16:43.846Z,94935.29
2018-08-09T11:21:47.167Z,94937.87
2018-08-09T11:26:50.503Z,94929.08
2018-08-09T11:31:54.590Z,94937.20
2018-08-09T11:36:57.918Z,94940.95
2018-08-09T11:42:01.259Z,94930.06
2018-08-09T11:47:05.353Z,94939.18
2018-08-09T11:52:08.690Z,94941.77
2018-08-09T11:57:12.805Z,94931.16
2018-08-09T12:02:16.158Z,94919.22
2018-08-09T12:07:19.487Z,94923.91
2018-08-09T12:12:22.813Z,94923.73
2018-08-09T12:17:26.152Z,94914.06
2018-08-09T12:22:29.494Z,94900.05
2018-08-09T12:27:33.587Z,94904.53
2018-08-09T12:32:36.940Z,94892.48
2018-08-09T12:37:40.278Z,94887.67
2018-08-09T12:42:43.607Z,94881.05
2018-08-09T12:47:46.933Z,94882.91
2018-08-09T12:52:50.258Z,94879.08
2018-08-09T12:57:53.592Z,94864.86
2018-08-09T13:02:57.684Z,94862.60
2018-08-09T13:08:01.021Z,94856.33
2018-08-09T13:13:04.347Z,94865.66
2018-08-09T13:18:07.684Z,94869.14
2018-08-09T13:23:11.007Z,94858.39
2018-08-09T13:28:14.338Z,94835.50
2018-08-09T13:33:17.666Z,94839.58
2018-08-09T13:38:20.994Z,94831.03
2018-08-09T13:43:24.377Z,94824.56
2018-08-09T13:48:27.681Z,94825.97
2018-08-09T13:53:31.006Z,94818.76
2018-08-09T13:58:34.379Z,94809.95
2018-08-09T14:03:38.457Z,94810.23
2018-08-09T14:08:41.788Z,94808.56
2018-08-09T14:13:45.111Z,94813.39
2018-08-09T14:18:49.197Z,94806.98
2018-08-09T14:23:52.531Z,94784.70
2018-08-09T14:28:55.861Z,94790.34
2018-08-09T14:33:59.189Z,94797.67
2018-08-09T14:39:03.282Z,94790.48
2018-08-09T14:44:06.608Z,94798.00
2018-08-09T14:49:09.934Z,94794.06
2018-08-09T14:54:13.262Z,94796.66
2018-08-09T14:59:16.593Z,94790.70
2018-08-09T15:04:19.924Z,94784.93
2018-08-09T15:09:23.259Z,94802.13
2018-08-09T15:14:26.596Z,94799.60
2018-08-09T15:19:30.696Z,94783.08
2018-08-09T15:24:34.045Z,94800.98
2018-08-09T15:29:37.369Z,94806.16
2018-08-09T15:34:40.698Z,94802.47
2018-08-09T15:39:44.023Z,94800.95
2018-08-09T15:44:47.349Z,94806.88
2018-08-09T15:49:50.682Z,94807.72
2018-08-09T15:54:54.039Z,94810.37
2018-08-09T15:59:57.367Z,94819.30
2018-08-09T16:05:00.710Z,94821.81
2018-08-09T16:10:04.100Z,94837.20
2018-08-09T16:15:08.166Z,94820.23
2018-08-09T16:20:11.506Z,94821.27
2018-08-09T16:25:14.839Z,94802.02
2018-08-09T16:30:18.748Z,94807.09
2018-08-09T16:35:22.445Z,94818.37
2018-08-09T16:40:26.057Z,94813.93
2018-08-09T16:45:40.477Z,94824.77
2018-08-09T16:50:44.248Z,94834.41
2018-08-09T16:55:57.517Z,94835.13
2018-08-09T17:01:01.274Z,94840.68
2018-08-09T17:06:05.093Z,94839.82
2018-08-09T17:11:08.764Z,94844.84
2018-08-09T17:16:22.486Z,94857.31
2018-08-09T17:21:26.189Z,94906.45
2018-08-09T17:26:43.495Z,94946.78
2018-08-09T17:31:47.170Z,94954.92
2018-08-09T17:36:50.851Z,94971.73
2018-08-09T17:41:54.792Z,95023.39
2018-08-09T17:46:58.366Z,95012.25
2018-08-09T17:52:02.837Z,95025.10
2018-08-09T17:57:06.495Z,95038.73
2018-08-09T18:02:10.957Z,95076.65
2018-08-09T18:07:14.601Z,95117.17
2018-08-09T18:12:18.300Z,95137.38
2018-08-09T18:17:21.981Z,95136.70
2018-08-09T18:22:26.366Z,95171.73
2018-08-09T18:27:30.026Z,95182.11
2018-08-09T18:32:34.631Z,95199.36
2018-08-09T18:37:38.956Z,95217.72
2018-08-09T18:42:43.016Z,95234.01
2018-08-09T18:47:46.737Z,95253.05
2018-08-09T18:52:50.486Z,95260.92
2018-08-09T18:57:54.292Z,95269.48
2018-08-09T19:02:58.135Z,95275.66
2018-08-09T19:08:01.944Z,95275.65
2018-08-09T19:13:05.657Z,95292.77
2018-08-09T19:18:09.453Z,95308.80
2018-08-09T19:23:13.098Z,95319.92
2018-08-09T19:28:16.925Z,95368.42
2018-08-09T19:33:20.651Z,95361.97
2018-08-09T19:38:25.138Z,95372.22
2018-08-09T19:43:28.940Z,95369.86
2018-08-09T19:48:33.389Z,95358.89
2018-08-09T19:53:37.394Z,95372.59
2018-08-09T19:58:41.091Z,95390.98
2018-08-09T20:03:44.719Z,95373.53
2018-08-09T20:08:48.366Z,95375.16
2018-08-09T20:13:52.018Z,95369.41
2018-08-09T20:18:55.472Z,95360.31
2018-08-09T20:23:59.116Z,95369.41
2018-08-09T20:29:02.756Z,95397.78
2018-08-09T20:34:06.193Z,95449.05
2018-08-09T20:39:10.458Z,95443.14
2018-08-09T20:44:39.217Z,95441.20
2018-08-09T20:49:43.324Z,95436.39
2018-08-09T20:54:46.654Z,95433.70
2018-08-09T20:59:49.977Z,95439.05
2018-08-09T21:04:53.382Z,95445.16
2018-08-09T21:09:56.711Z,95439.75
2018-08-09T21:15:00.060Z,95434.92
2018-08-09T21:20:03.401Z,95446.41
2018-08-09T21:25:06.719Z,95445.92
2018-08-09T21:30:10.050Z,95449.13
2018-08-09T21:35:13.370Z,95455.92
2018-08-09T21:40:16.698Z,95464.21
2018-08-09T21:45:20.796Z,95468.99
2018-08-09T21:50:24.126Z,95473.32
2018-08-09T21:55:27.451Z,95481.71
2018-08-09T22:00:31.552Z,95497.84
2018-08-09T22:05:35.650Z,95502.43
2018-08-09T22:16:20.079Z,95518.23
2018-08-09T22:21:28.999Z,95511.48
2018-08-09T22:26:52.141Z,95506.83
